sensor_id;sensor_type;location;lat;lon;timestamp;P1;durP1;ratioP1;P2;durP2;ratioP2
1957;SDS011;979;51.076;13.748;2023-05-10T00:01:28;19.10;;;18.30;;
1957;SDS011;979;51.076;13.748;2023-05-10T00:03:56;18.40;;;17.70;;
1957;SDS011;979;51.076;13.748;2023-05-10T00:06:24;18.83;;;18.10;;
1957;SDS011;979;51.076;13.748;2023-05-10T00:08:53;18.70;;;17.90;;
1957;SDS011;979;51.076;13.748;2023-05-10T00:11:30;19.00;;;18.20;;
1957;SDS011;979;51.076;13.748;2023-05-10T00:14:01;19.23;;;18.43;;
1957;SDS011;979;51.076;13.748;2023-05-10T00:16:58;19.00;;;18.30;;
1957;SDS011;979;51.076;13.748;2023-05-10T00:19:27;18.70;;;17.90;;
1957;SDS011;979;51.076;13.748;2023-05-10T00:21:57;18.70;;;18.00;;
1957;SDS011;979;51.076;13.748;2023-05-10T00:24:25;19.00;;;18.20;;
1957;SDS011;979;51.076;13.748;2023-05-10T00:26:53;18.67;;;17.87;;
1957;SDS011;979;51.076;13.748;2023-05-10T00:29:22;19.70;;;18.70;;
1957;SDS011;979;51.076;13.748;2023-05-10T00:31:50;19.03;;;18.23;;
1957;SDS011;979;51.076;13.748;2023-05-10T00:34:22;18.60;;;17.90;;
1957;SDS011;979;51.076;13.748;2023-05-10T00:36:57;18.50;;;17.80;;
1957;SDS011;979;51.076;13.748;2023-05-10T00:39:29;18.53;;;17.73;;
1957;SDS011;979;51.076;13.748;2023-05-10T00:41:57;19.00;;;18.10;;
1957;SDS011;979;51.076;13.748;2023-05-10T00:44:28;19.33;;;18.43;;
1957;SDS011;979;51.076;13.748;2023-05-10T00:46:59;18.80;;;17.90;;
1957;SDS011;979;51.076;13.748;2023-05-10T00:49:39;18.80;;;18.00;;
1957;SDS011;979;51.076;13.748;2023-05-10T00:52:08;19.60;;;18.50;;
1957;SDS011;979;51.076;13.748;2023-05-10T00:54:36;18.77;;;17.80;;
1957;SDS011;979;51.076;13.748;2023-05-10T00:57:05;18.23;;;17.57;;
1957;SDS011;979;51.076;13.748;2023-05-10T00:59:36;17.83;;;17.13;;
1957;SDS011;979;51.076;13.748;2023-05-10T01:02:05;18.67;;;17.90;;
1957;SDS011;979;51.076;13.748;2023-05-10T01:04:50;17.93;;;17.33;;
1957;SDS011;979;51.076;13.748;2023-05-10T01:07:18;19.10;;;18.20;;
1957;SDS011;979;51.076;13.748;2023-05-10T01:09:47;21.00;;;20.03;;
1957;SDS011;979;51.076;13.748;2023-05-10T01:12:15;18.20;;;17.60;;
1957;SDS011;979;51.076;13.748;2023-05-10T01:14:43;18.30;;;17.60;;
1957;SDS011;979;51.076;13.748;2023-05-10T01:17:12;18.20;;;17.50;;
1957;SDS011;979;51.076;13.748;2023-05-10T01:19:42;18.50;;;17.80;;
1957;SDS011;979;51.076;13.748;2023-05-10T01:22:14;18.47;;;17.77;;
1957;SDS011;979;51.076;13.748;2023-05-10T01:25:03;18.60;;;17.90;;
1957;SDS011;979;51.076;13.748;2023-05-10T01:30:56;18.03;;;17.33;;
1957;SDS011;979;51.076;13.748;2023-05-10T01:33:40;18.47;;;17.77;;
1957;SDS011;979;51.076;13.748;2023-05-10T01:36:16;17.73;;;17.00;;
1957;SDS011;979;51.076;13.748;2023-05-10T01:38:53;18.10;;;17.40;;
1957;SDS011;979;51.076;13.748;2023-05-10T01:41:31;19.10;;;18.30;;
1957;SDS011;979;51.076;13.748;2023-05-10T01:44:22;18.47;;;17.60;;
1957;SDS011;979;51.076;13.748;2023-05-10T01:46:57;18.47;;;17.67;;
1957;SDS011;979;51.076;13.748;2023-05-10T01:49:34;19.13;;;18.20;;
1957;SDS011;979;51.076;13.748;2023-05-10T01:52:08;19.70;;;18.67;;
1957;SDS011;979;51.076;13.748;2023-05-10T01:54:41;19.20;;;18.30;;
1957;SDS011;979;51.076;13.748;2023-05-10T01:57:35;18.70;;;17.90;;
1957;SDS011;979;51.076;13.748;2023-05-10T02:00:06;18.90;;;18.20;;
1957;SDS011;979;51.076;13.748;2023-05-10T02:02:44;19.10;;;18.20;;
1957;SDS011;979;51.076;13.748;2023-05-10T02:05:27;17.50;;;16.83;;
1957;SDS011;979;51.076;13.748;2023-05-10T02:07:58;18.10;;;17.40;;
1957;SDS011;979;51.076;13.748;2023-05-10T02:10:28;17.80;;;17.20;;
1957;SDS011;979;51.076;13.748;2023-05-10T02:13:07;19.00;;;18.20;;
1957;SDS011;979;51.076;13.748;2023-05-10T02:15:36;18.80;;;17.80;;
1957;SDS011;979;51.076;13.748;2023-05-10T02:18:06;18.57;;;17.67;;
1957;SDS011;979;51.076;13.748;2023-05-10T02:20:52;18.30;;;17.40;;
1957;SDS011;979;51.076;13.748;2023-05-10T02:23:23;17.50;;;16.80;;
1957;SDS011;979;51.076;13.748;2023-05-10T02:25:53;18.30;;;17.50;;
1957;SDS011;979;51.076;13.748;2023-05-10T02:28:23;18.07;;;17.27;;
1957;SDS011;979;51.076;13.748;2023-05-10T02:30:58;18.40;;;17.70;;
1957;SDS011;979;51.076;13.748;2023-05-10T02:33:29;19.10;;;18.30;;
1957;SDS011;979;51.076;13.748;2023-05-10T02:36:01;18.67;;;17.87;;
1957;SDS011;979;51.076;13.748;2023-05-10T02:38:32;18.50;;;17.70;;
1957;SDS011;979;51.076;13.748;2023-05-10T02:41:02;18.07;;;17.37;;
1957;SDS011;979;51.076;13.748;2023-05-10T02:43:40;19.00;;;18.10;;
1957;SDS011;979;51.076;13.748;2023-05-10T02:46:11;19.10;;;18.20;;
1957;SDS011;979;51.076;13.748;2023-05-10T02:48:39;18.90;;;18.03;;
1957;SDS011;979;51.076;13.748;2023-05-10T02:51:14;18.70;;;17.90;;
1957;SDS011;979;51.076;13.748;2023-05-10T02:53:46;17.93;;;17.10;;
1957;SDS011;979;51.076;13.748;2023-05-10T02:56:38;19.10;;;18.30;;
1957;SDS011;979;51.076;13.748;2023-05-10T02:59:12;17.90;;;17.20;;
1957;SDS011;979;51.076;13.748;2023-05-10T03:01:42;18.37;;;17.67;;
1957;SDS011;979;51.076;13.748;2023-05-10T03:04:11;17.60;;;16.90;;
1957;SDS011;979;51.076;13.748;2023-05-10T03:06:50;18.10;;;17.30;;
1957;SDS011;979;51.076;13.748;2023-05-10T03:09:25;18.00;;;17.20;;
1957;SDS011;979;51.076;13.748;2023-05-10T03:12:15;18.10;;;17.40;;
1957;SDS011;979;51.076;13.748;2023-05-10T03:14:57;18.23;;;17.53;;
1957;SDS011;979;51.076;13.748;2023-05-10T03:17:34;17.83;;;17.13;;
1957;SDS011;979;51.076;13.748;2023-05-10T03:20:25;17.17;;;16.57;;
1957;SDS011;979;51.076;13.748;2023-05-10T03:23:04;18.17;;;17.33;;
1957;SDS011;979;51.076;13.748;2023-05-10T03:25:45;17.53;;;16.57;;
1957;SDS011;979;51.076;13.748;2023-05-10T03:28:24;17.60;;;16.83;;
1957;SDS011;979;51.076;13.748;2023-05-10T03:31:03;18.40;;;17.50;;
1957;SDS011;979;51.076;13.748;2023-05-10T03:33:48;17.33;;;16.70;;
1957;SDS011;979;51.076;13.748;2023-05-10T03:36:32;18.00;;;17.20;;
1957;SDS011;979;51.076;13.748;2023-05-10T03:39:28;18.80;;;18.00;;
1957;SDS011;979;51.076;13.748;2023-05-10T03:42:05;18.50;;;17.50;;
1957;SDS011;979;51.076;13.748;2023-05-10T03:44:43;18.30;;;17.60;;
1957;SDS011;979;51.076;13.748;2023-05-10T03:47:35;18.10;;;17.37;;
1957;SDS011;979;51.076;13.748;2023-05-10T03:50:17;17.77;;;17.00;;
1957;SDS011;979;51.076;13.748;2023-05-10T03:52:57;17.60;;;17.00;;
1957;SDS011;979;51.076;13.748;2023-05-10T03:55:37;17.80;;;17.10;;
1957;SDS011;979;51.076;13.748;2023-05-10T03:58:14;17.70;;;16.90;;
1957;SDS011;979;51.076;13.748;2023-05-10T04:00:53;16.77;;;16.17;;
1957;SDS011;979;51.076;13.748;2023-05-10T04:03:30;16.60;;;15.80;;
1957;SDS011;979;51.076;13.748;2023-05-10T04:06:13;17.57;;;16.87;;
1957;SDS011;979;51.076;13.748;2023-05-10T04:08:57;17.77;;;16.97;;
1957;SDS011;979;51.076;13.748;2023-05-10T04:11:37;17.37;;;16.53;;
1957;SDS011;979;51.076;13.748;2023-05-10T04:14:23;16.90;;;16.20;;
1957;SDS011;979;51.076;13.748;2023-05-10T04:16:56;16.83;;;16.10;;
1957;SDS011;979;51.076;13.748;2023-05-10T04:19:29;16.60;;;16.00;;
1957;SDS011;979;51.076;13.748;2023-05-10T04:22:09;17.30;;;16.60;;
1957;SDS011;979;51.076;13.748;2023-05-10T04:24:44;17.33;;;16.63;;
1957;SDS011;979;51.076;13.748;2023-05-10T04:27:19;17.87;;;17.23;;
1957;SDS011;979;51.076;13.748;2023-05-10T04:29:58;17.20;;;16.50;;
1957;SDS011;979;51.076;13.748;2023-05-10T04:32:33;17.43;;;16.83;;
1957;SDS011;979;51.076;13.748;2023-05-10T04:35:13;16.97;;;16.37;;
1957;SDS011;979;51.076;13.748;2023-05-10T04:37:59;18.13;;;17.20;;
1957;SDS011;979;51.076;13.748;2023-05-10T04:40:31;18.60;;;17.67;;
1957;SDS011;979;51.076;13.748;2023-05-10T04:43:36;17.50;;;16.70;;
1957;SDS011;979;51.076;13.748;2023-05-10T04:46:18;17.30;;;16.70;;
1957;SDS011;979;51.076;13.748;2023-05-10T04:48:57;17.60;;;16.90;;
1957;SDS011;979;51.076;13.748;2023-05-10T04:55:24;17.33;;;16.63;;
1957;SDS011;979;51.076;13.748;2023-05-10T04:58:43;15.80;;;15.30;;
1957;SDS011;979;51.076;13.748;2023-05-10T05:01:29;16.50;;;15.90;;
1957;SDS011;979;51.076;13.748;2023-05-10T05:04:30;16.90;;;15.90;;
1957;SDS011;979;51.076;13.748;2023-05-10T05:07:20;16.70;;;15.90;;
1957;SDS011;979;51.076;13.748;2023-05-10T05:10:19;16.50;;;15.80;;
1957;SDS011;979;51.076;13.748;2023-05-10T05:13:04;16.67;;;16.07;;
1957;SDS011;979;51.076;13.748;2023-05-10T05:16:04;16.03;;;15.43;;
1957;SDS011;979;51.076;13.748;2023-05-10T05:18:40;17.20;;;16.50;;
1957;SDS011;979;51.076;13.748;2023-05-10T05:21:51;16.03;;;15.50;;
1957;SDS011;979;51.076;13.748;2023-05-10T05:24:39;17.00;;;16.30;;
1957;SDS011;979;51.076;13.748;2023-05-10T05:27:12;17.27;;;16.50;;
1957;SDS011;979;51.076;13.748;2023-05-10T05:29:58;17.50;;;16.77;;
1957;SDS011;979;51.076;13.748;2023-05-10T05:32:39;19.00;;;17.43;;
1957;SDS011;979;51.076;13.748;2023-05-10T05:35:14;17.60;;;17.00;;
1957;SDS011;979;51.076;13.748;2023-05-10T05:37:46;16.70;;;16.10;;
1957;SDS011;979;51.076;13.748;2023-05-10T05:40:17;17.80;;;17.10;;
1957;SDS011;979;51.076;13.748;2023-05-10T05:43:01;17.53;;;16.83;;
1957;SDS011;979;51.076;13.748;2023-05-10T05:46:28;18.13;;;17.47;;
1957;SDS011;979;51.076;13.748;2023-05-10T05:49:46;19.57;;;18.57;;
1957;SDS011;979;51.076;13.748;2023-05-10T05:52:54;18.67;;;17.47;;
1957;SDS011;979;51.076;13.748;2023-05-10T05:59:14;16.50;;;15.80;;
1957;SDS011;979;51.076;13.748;2023-05-10T06:02:16;17.40;;;16.57;;
1957;SDS011;979;51.076;13.748;2023-05-10T06:05:22;18.63;;;17.63;;
1957;SDS011;979;51.076;13.748;2023-05-10T06:08:17;18.53;;;17.63;;
1957;SDS011;979;51.076;13.748;2023-05-10T06:11:07;18.00;;;17.30;;
1957;SDS011;979;51.076;13.748;2023-05-10T06:14:13;18.57;;;17.73;;
1957;SDS011;979;51.076;13.748;2023-05-10T06:17:03;18.90;;;18.10;;
1957;SDS011;979;51.076;13.748;2023-05-10T06:27:01;18.60;;;17.57;;
1957;SDS011;979;51.076;13.748;2023-05-10T06:29:51;19.07;;;18.20;;
1957;SDS011;979;51.076;13.748;2023-05-10T06:32:40;18.57;;;17.40;;
1957;SDS011;979;51.076;13.748;2023-05-10T06:35:39;18.03;;;17.40;;
1957;SDS011;979;51.076;13.748;2023-05-10T06:38:27;18.97;;;18.07;;
1957;SDS011;979;51.076;13.748;2023-05-10T06:45:31;19.13;;;18.33;;
1957;SDS011;979;51.076;13.748;2023-05-10T06:47:44;18.57;;;17.70;;
1957;SDS011;979;51.076;13.748;2023-05-10T06:50:33;19.53;;;18.67;;
1957;SDS011;979;51.076;13.748;2023-05-10T06:56:29;19.60;;;18.80;;
1957;SDS011;979;51.076;13.748;2023-05-10T06:59:26;20.17;;;19.20;;
1957;SDS011;979;51.076;13.748;2023-05-10T07:02:00;19.80;;;18.80;;
1957;SDS011;979;51.076;13.748;2023-05-10T07:04:31;19.03;;;18.23;;
1957;SDS011;979;51.076;13.748;2023-05-10T07:07:05;19.20;;;18.50;;
1957;SDS011;979;51.076;13.748;2023-05-10T07:09:58;19.40;;;18.37;;
1957;SDS011;979;51.076;13.748;2023-05-10T07:12:33;19.53;;;18.73;;
1957;SDS011;979;51.076;13.748;2023-05-10T07:15:09;19.40;;;18.50;;
1957;SDS011;979;51.076;13.748;2023-05-10T07:17:58;19.23;;;18.53;;
1957;SDS011;979;51.076;13.748;2023-05-10T07:20:35;20.57;;;19.37;;
1957;SDS011;979;51.076;13.748;2023-05-10T07:23:19;19.70;;;18.90;;
1957;SDS011;979;51.076;13.748;2023-05-10T07:25:56;19.43;;;18.63;;
1957;SDS011;979;51.076;13.748;2023-05-10T07:28:32;19.10;;;18.30;;
1957;SDS011;979;51.076;13.748;2023-05-10T07:34:31;20.03;;;19.00;;
1957;SDS011;979;51.076;13.748;2023-05-10T07:37:21;20.07;;;19.07;;
1957;SDS011;979;51.076;13.748;2023-05-10T07:40:17;19.57;;;18.77;;
1957;SDS011;979;51.076;13.748;2023-05-10T07:43:08;20.67;;;18.93;;
1957;SDS011;979;51.076;13.748;2023-05-10T07:45:54;19.43;;;18.73;;
1957;SDS011;979;51.076;13.748;2023-05-10T07:51:45;20.33;;;19.43;;
1957;SDS011;979;51.076;13.748;2023-05-10T07:54:19;20.03;;;19.13;;
1957;SDS011;979;51.076;13.748;2023-05-10T07:57:05;20.37;;;19.57;;
1957;SDS011;979;51.076;13.748;2023-05-10T07:59:40;20.83;;;19.83;;
1957;SDS011;979;51.076;13.748;2023-05-10T08:02:25;19.43;;;18.63;;
1957;SDS011;979;51.076;13.748;2023-05-10T08:08:05;22.93;;;21.93;;
1957;SDS011;979;51.076;13.748;2023-05-10T08:10:45;19.87;;;19.00;;
1957;SDS011;979;51.076;13.748;2023-05-10T08:13:24;20.40;;;19.60;;
1957;SDS011;979;51.076;13.748;2023-05-10T08:16:07;19.60;;;18.50;;
1957;SDS011;979;51.076;13.748;2023-05-10T08:18:43;21.50;;;20.13;;
1957;SDS011;979;51.076;13.748;2023-05-10T08:21:30;20.30;;;19.30;;
1957;SDS011;979;51.076;13.748;2023-05-10T08:24:06;20.93;;;20.03;;
1957;SDS011;979;51.076;13.748;2023-05-10T08:26:45;19.97;;;19.07;;
1957;SDS011;979;51.076;13.748;2023-05-10T08:29:19;20.97;;;19.97;;
1957;SDS011;979;51.076;13.748;2023-05-10T08:31:58;20.60;;;19.70;;
1957;SDS011;979;51.076;13.748;2023-05-10T08:34:32;20.07;;;19.27;;
1957;SDS011;979;51.076;13.748;2023-05-10T08:37:11;20.03;;;19.23;;
1957;SDS011;979;51.076;13.748;2023-05-10T08:39:52;20.20;;;19.40;;
1957;SDS011;979;51.076;13.748;2023-05-10T08:42:30;20.03;;;19.03;;
1957;SDS011;979;51.076;13.748;2023-05-10T08:45:09;20.40;;;19.20;;
1957;SDS011;979;51.076;13.748;2023-05-10T08:47:55;20.30;;;19.37;;
1957;SDS011;979;51.076;13.748;2023-05-10T08:50:40;20.70;;;19.80;;
1957;SDS011;979;51.076;13.748;2023-05-10T08:53:14;21.00;;;20.00;;
1957;SDS011;979;51.076;13.748;2023-05-10T08:55:50;20.10;;;19.13;;
1957;SDS011;979;51.076;13.748;2023-05-10T08:58:31;20.40;;;19.60;;
1957;SDS011;979;51.076;13.748;2023-05-10T09:01:04;20.30;;;19.40;;
1957;SDS011;979;51.076;13.748;2023-05-10T09:03:40;20.87;;;19.83;;
1957;SDS011;979;51.076;13.748;2023-05-10T09:06:09;21.20;;;20.20;;
1957;SDS011;979;51.076;13.748;2023-05-10T09:08:47;20.47;;;19.57;;
1957;SDS011;979;51.076;13.748;2023-05-10T09:11:33;21.00;;;20.10;;
1957;SDS011;979;51.076;13.748;2023-05-10T09:14:13;20.73;;;19.93;;
1957;SDS011;979;51.076;13.748;2023-05-10T09:16:52;20.17;;;19.33;;
1957;SDS011;979;51.076;13.748;2023-05-10T09:19:33;21.30;;;20.00;;
1957;SDS011;979;51.076;13.748;2023-05-10T09:22:04;20.87;;;19.87;;
1957;SDS011;979;51.076;13.748;2023-05-10T09:24:53;20.87;;;19.87;;
1957;SDS011;979;51.076;13.748;2023-05-10T09:27:34;20.10;;;19.20;;
1957;SDS011;979;51.076;13.748;2023-05-10T09:30:29;20.53;;;19.63;;
1957;SDS011;979;51.076;13.748;2023-05-10T09:33:05;21.60;;;20.70;;
1957;SDS011;979;51.076;13.748;2023-05-10T09:35:52;20.47;;;19.37;;
1957;SDS011;979;51.076;13.748;2023-05-10T09:38:22;21.10;;;20.20;;
1957;SDS011;979;51.076;13.748;2023-05-10T09:41:01;20.57;;;19.77;;
1957;SDS011;979;51.076;13.748;2023-05-10T09:43:30;20.20;;;19.40;;
1957;SDS011;979;51.076;13.748;2023-05-10T09:46:08;20.90;;;19.70;;
1957;SDS011;979;51.076;13.748;2023-05-10T09:48:50;21.40;;;20.30;;
1957;SDS011;979;51.076;13.748;2023-05-10T09:51:26;20.43;;;19.53;;
1957;SDS011;979;51.076;13.748;2023-05-10T09:54:16;22.23;;;21.20;;
1957;SDS011;979;51.076;13.748;2023-05-10T09:56:55;20.63;;;19.70;;
1957;SDS011;979;51.076;13.748;2023-05-10T09:59:32;22.33;;;21.03;;
1957;SDS011;979;51.076;13.748;2023-05-10T10:02:06;22.07;;;21.07;;
1957;SDS011;979;51.076;13.748;2023-05-10T10:04:41;21.73;;;20.63;;
1957;SDS011;979;51.076;13.748;2023-05-10T10:07:23;21.63;;;20.53;;
1957;SDS011;979;51.076;13.748;2023-05-10T10:10:07;20.37;;;19.37;;
1957;SDS011;979;51.076;13.748;2023-05-10T10:12:59;20.23;;;19.40;;
1957;SDS011;979;51.076;13.748;2023-05-10T10:15:37;20.70;;;19.60;;
1957;SDS011;979;51.076;13.748;2023-05-10T10:18:14;19.60;;;18.77;;
1957;SDS011;979;51.076;13.748;2023-05-10T10:21:07;22.00;;;20.90;;
1957;SDS011;979;51.076;13.748;2023-05-10T10:23:41;20.50;;;19.70;;
1957;SDS011;979;51.076;13.748;2023-05-10T10:26:17;19.63;;;18.93;;
1957;SDS011;979;51.076;13.748;2023-05-10T10:29:08;21.03;;;20.07;;
1957;SDS011;979;51.076;13.748;2023-05-10T10:31:57;20.17;;;19.17;;
1957;SDS011;979;51.076;13.748;2023-05-10T10:34:46;20.80;;;19.90;;
1957;SDS011;979;51.076;13.748;2023-05-10T10:37:45;20.80;;;19.67;;
1957;SDS011;979;51.076;13.748;2023-05-10T10:40:31;20.50;;;19.70;;
1957;SDS011;979;51.076;13.748;2023-05-10T10:43:26;20.97;;;19.97;;
1957;SDS011;979;51.076;13.748;2023-05-10T10:46:25;22.87;;;21.70;;
1957;SDS011;979;51.076;13.748;2023-05-10T10:49:11;21.20;;;20.30;;
1957;SDS011;979;51.076;13.748;2023-05-10T10:54:51;21.30;;;20.20;;
1957;SDS011;979;51.076;13.748;2023-05-10T10:57:53;20.27;;;19.47;;
1957;SDS011;979;51.076;13.748;2023-05-10T11:00:32;20.60;;;19.80;;
1957;SDS011;979;51.076;13.748;2023-05-10T11:03:08;20.10;;;19.10;;
1957;SDS011;979;51.076;13.748;2023-05-10T11:05:40;21.30;;;20.40;;
1957;SDS011;979;51.076;13.748;2023-05-10T11:08:26;20.70;;;19.80;;
1957;SDS011;979;51.076;13.748;2023-05-10T11:11:05;20.27;;;19.40;;
1957;SDS011;979;51.076;13.748;2023-05-10T11:13:37;20.00;;;19.10;;
1957;SDS011;979;51.076;13.748;2023-05-10T11:16:11;20.40;;;19.50;;
1957;SDS011;979;51.076;13.748;2023-05-10T11:18:44;20.43;;;19.53;;
1957;SDS011;979;51.076;13.748;2023-05-10T11:21:30;20.40;;;19.60;;
1957;SDS011;979;51.076;13.748;2023-05-10T11:23:59;22.03;;;21.03;;
1957;SDS011;979;51.076;13.748;2023-05-10T11:26:33;20.50;;;19.50;;
1957;SDS011;979;51.076;13.748;2023-05-10T11:29:02;21.57;;;20.47;;
1957;SDS011;979;51.076;13.748;2023-05-10T11:31:31;20.47;;;19.57;;
1957;SDS011;979;51.076;13.748;2023-05-10T11:34:01;21.17;;;20.23;;
1957;SDS011;979;51.076;13.748;2023-05-10T11:36:32;21.57;;;20.37;;
1957;SDS011;979;51.076;13.748;2023-05-10T11:39:01;22.13;;;21.17;;
1957;SDS011;979;51.076;13.748;2023-05-10T11:41:33;21.53;;;20.57;;
1957;SDS011;979;51.076;13.748;2023-05-10T11:44:01;20.83;;;19.83;;
1957;SDS011;979;51.076;13.748;2023-05-10T11:46:30;20.47;;;19.50;;
1957;SDS011;979;51.076;13.748;2023-05-10T11:48:59;21.97;;;20.87;;
1957;SDS011;979;51.076;13.748;2023-05-10T11:51:33;21.50;;;20.30;;
1957;SDS011;979;51.076;13.748;2023-05-10T11:54:05;21.20;;;20.30;;
1957;SDS011;979;51.076;13.748;2023-05-10T11:56:34;19.30;;;18.50;;
1957;SDS011;979;51.076;13.748;2023-05-10T11:59:03;20.00;;;19.20;;
1957;SDS011;979;51.076;13.748;2023-05-10T12:01:32;22.10;;;21.10;;
1957;SDS011;979;51.076;13.748;2023-05-10T12:04:02;21.67;;;20.77;;
1957;SDS011;979;51.076;13.748;2023-05-10T12:06:31;21.93;;;20.97;;
1957;SDS011;979;51.076;13.748;2023-05-10T12:09:05;22.13;;;21.23;;
1957;SDS011;979;51.076;13.748;2023-05-10T12:11:36;22.30;;;21.40;;
1957;SDS011;979;51.076;13.748;2023-05-10T12:14:09;21.07;;;20.17;;
1957;SDS011;979;51.076;13.748;2023-05-10T12:16:37;21.50;;;20.63;;
1957;SDS011;979;51.076;13.748;2023-05-10T12:19:09;21.20;;;20.30;;
1957;SDS011;979;51.076;13.748;2023-05-10T12:21:38;21.60;;;20.70;;
1957;SDS011;979;51.076;13.748;2023-05-10T12:24:07;21.20;;;20.40;;
1957;SDS011;979;51.076;13.748;2023-05-10T12:26:36;21.47;;;20.27;;
1957;SDS011;979;51.076;13.748;2023-05-10T12:29:13;22.33;;;21.10;;
1957;SDS011;979;51.076;13.748;2023-05-10T12:31:48;20.70;;;19.90;;
1957;SDS011;979;51.076;13.748;2023-05-10T12:34:26;20.97;;;20.07;;
1957;SDS011;979;51.076;13.748;2023-05-10T12:36:59;20.83;;;19.83;;
1957;SDS011;979;51.076;13.748;2023-05-10T12:39:44;20.70;;;19.90;;
1957;SDS011;979;51.076;13.748;2023-05-10T12:42:13;20.10;;;19.30;;
1957;SDS011;979;51.076;13.748;2023-05-10T12:44:55;20.73;;;19.90;;
1957;SDS011;979;51.076;13.748;2023-05-10T12:47:24;19.50;;;18.80;;
1957;SDS011;979;51.076;13.748;2023-05-10T12:49:57;20.33;;;19.57;;
1957;SDS011;979;51.076;13.748;2023-05-10T12:52:26;19.50;;;18.70;;
1957;SDS011;979;51.076;13.748;2023-05-10T12:54:55;20.63;;;19.80;;
1957;SDS011;979;51.076;13.748;2023-05-10T12:57:27;21.40;;;20.50;;
1957;SDS011;979;51.076;13.748;2023-05-10T12:59:56;22.20;;;21.40;;
1957;SDS011;979;51.076;13.748;2023-05-10T13:02:24;21.17;;;20.23;;
1957;SDS011;979;51.076;13.748;2023-05-10T13:05:09;23.40;;;22.30;;
1957;SDS011;979;51.076;13.748;2023-05-10T13:07:43;20.37;;;19.40;;
1957;SDS011;979;51.076;13.748;2023-05-10T13:10:13;19.83;;;19.03;;
1957;SDS011;979;51.076;13.748;2023-05-10T13:12:42;19.70;;;18.90;;
1957;SDS011;979;51.076;13.748;2023-05-10T13:15:25;20.90;;;20.00;;
1957;SDS011;979;51.076;13.748;2023-05-10T13:17:54;20.40;;;19.60;;
1957;SDS011;979;51.076;13.748;2023-05-10T13:20:35;20.93;;;19.93;;
1957;SDS011;979;51.076;13.748;2023-05-10T13:23:04;21.00;;;20.10;;
1957;SDS011;979;51.076;13.748;2023-05-10T13:25:45;20.77;;;19.87;;
1957;SDS011;979;51.076;13.748;2023-05-10T13:28:16;20.80;;;19.90;;
1957;SDS011;979;51.076;13.748;2023-05-10T13:30:53;18.70;;;18.00;;
1957;SDS011;979;51.076;13.748;2023-05-10T13:33:21;20.83;;;19.83;;
1957;SDS011;979;51.076;13.748;2023-05-10T13:35:51;20.73;;;19.67;;
1957;SDS011;979;51.076;13.748;2023-05-10T13:38:23;19.83;;;19.00;;
1957;SDS011;979;51.076;13.748;2023-05-10T13:40:52;19.90;;;19.10;;
1957;SDS011;979;51.076;13.748;2023-05-10T13:43:21;21.00;;;19.93;;
1957;SDS011;979;51.076;13.748;2023-05-10T13:45:49;20.70;;;19.63;;
1957;SDS011;979;51.076;13.748;2023-05-10T13:48:18;19.90;;;19.10;;
1957;SDS011;979;51.076;13.748;2023-05-10T13:50:47;19.97;;;19.07;;
1957;SDS011;979;51.076;13.748;2023-05-10T13:53:17;20.10;;;19.07;;
1957;SDS011;979;51.076;13.748;2023-05-10T13:55:46;19.63;;;18.77;;
1957;SDS011;979;51.076;13.748;2023-05-10T13:58:14;19.03;;;18.27;;
1957;SDS011;979;51.076;13.748;2023-05-10T14:00:42;19.57;;;18.87;;
1957;SDS011;979;51.076;13.748;2023-05-10T14:03:13;18.67;;;17.77;;
1957;SDS011;979;51.076;13.748;2023-05-10T14:05:41;20.30;;;19.30;;
1957;SDS011;979;51.076;13.748;2023-05-10T14:08:11;19.57;;;18.77;;
1957;SDS011;979;51.076;13.748;2023-05-10T14:10:42;19.30;;;18.43;;
1957;SDS011;979;51.076;13.748;2023-05-10T14:13:11;19.17;;;18.37;;
1957;SDS011;979;51.076;13.748;2023-05-10T14:15:39;18.73;;;17.93;;
1957;SDS011;979;51.076;13.748;2023-05-10T14:18:08;18.47;;;17.73;;
1957;SDS011;979;51.076;13.748;2023-05-10T14:20:36;18.47;;;17.77;;
1957;SDS011;979;51.076;13.748;2023-05-10T14:23:04;19.20;;;18.50;;
1957;SDS011;979;51.076;13.748;2023-05-10T14:25:35;19.03;;;18.10;;
1957;SDS011;979;51.076;13.748;2023-05-10T14:28:09;19.93;;;18.87;;
1957;SDS011;979;51.076;13.748;2023-05-10T14:30:38;19.60;;;18.90;;
1957;SDS011;979;51.076;13.748;2023-05-10T14:33:06;20.47;;;19.37;;
1957;SDS011;979;51.076;13.748;2023-05-10T14:35:35;19.37;;;18.30;;
1957;SDS011;979;51.076;13.748;2023-05-10T14:38:04;20.40;;;19.57;;
1957;SDS011;979;51.076;13.748;2023-05-10T14:40:32;19.27;;;18.47;;
1957;SDS011;979;51.076;13.748;2023-05-10T14:43:01;18.47;;;17.77;;
1957;SDS011;979;51.076;13.748;2023-05-10T14:45:31;19.03;;;18.33;;
1957;SDS011;979;51.076;13.748;2023-05-10T14:47:59;20.70;;;19.77;;
1957;SDS011;979;51.076;13.748;2023-05-10T14:50:31;18.50;;;17.80;;
1957;SDS011;979;51.076;13.748;2023-05-10T14:53:02;18.67;;;17.80;;
1957;SDS011;979;51.076;13.748;2023-05-10T14:55:31;20.07;;;18.97;;
1957;SDS011;979;51.076;13.748;2023-05-10T14:58:01;20.93;;;19.70;;
1957;SDS011;979;51.076;13.748;2023-05-10T15:00:34;20.07;;;19.17;;
1957;SDS011;979;51.076;13.748;2023-05-10T15:03:06;19.40;;;18.50;;
1957;SDS011;979;51.076;13.748;2023-05-10T15:05:35;19.77;;;18.97;;
1957;SDS011;979;51.076;13.748;2023-05-10T15:08:04;19.90;;;19.10;;
1957;SDS011;979;51.076;13.748;2023-05-10T15:10:33;19.53;;;18.80;;
1957;SDS011;979;51.076;13.748;2023-05-10T15:13:01;19.20;;;18.50;;
1957;SDS011;979;51.076;13.748;2023-05-10T15:15:31;19.37;;;18.50;;
1957;SDS011;979;51.076;13.748;2023-05-10T15:18:01;18.83;;;17.93;;
1957;SDS011;979;51.076;13.748;2023-05-10T15:20:31;18.40;;;17.50;;
1957;SDS011;979;51.076;13.748;2023-05-10T15:22:59;17.93;;;17.33;;
1957;SDS011;979;51.076;13.748;2023-05-10T15:25:31;19.27;;;18.33;;
1957;SDS011;979;51.076;13.748;2023-05-10T15:28:01;19.93;;;18.40;;
1957;SDS011;979;51.076;13.748;2023-05-10T15:30:35;19.33;;;18.40;;
1957;SDS011;979;51.076;13.748;2023-05-10T15:33:07;18.80;;;18.00;;
1957;SDS011;979;51.076;13.748;2023-05-10T15:35:42;18.57;;;17.77;;
1957;SDS011;979;51.076;13.748;2023-05-10T15:38:14;18.83;;;17.93;;
1957;SDS011;979;51.076;13.748;2023-05-10T15:40:45;19.30;;;18.50;;
1957;SDS011;979;51.076;13.748;2023-05-10T15:43:17;18.90;;;17.90;;
1957;SDS011;979;51.076;13.748;2023-05-10T15:45:45;19.40;;;18.60;;
1957;SDS011;979;51.076;13.748;2023-05-10T15:48:20;19.17;;;18.37;;
1957;SDS011;979;51.076;13.748;2023-05-10T15:50:48;19.83;;;18.83;;
1957;SDS011;979;51.076;13.748;2023-05-10T15:53:16;19.40;;;18.50;;
1957;SDS011;979;51.076;13.748;2023-05-10T15:55:44;19.30;;;18.50;;
1957;SDS011;979;51.076;13.748;2023-05-10T15:58:13;21.13;;;20.20;;
1957;SDS011;979;51.076;13.748;2023-05-10T16:00:42;18.47;;;17.67;;
1957;SDS011;979;51.076;13.748;2023-05-10T16:03:11;18.60;;;17.70;;
1957;SDS011;979;51.076;13.748;2023-05-10T16:05:41;18.67;;;17.80;;
1957;SDS011;979;51.076;13.748;2023-05-10T16:08:09;18.50;;;17.70;;
1957;SDS011;979;51.076;13.748;2023-05-10T16:10:38;18.40;;;17.70;;
1957;SDS011;979;51.076;13.748;2023-05-10T16:13:07;18.20;;;17.43;;
1957;SDS011;979;51.076;13.748;2023-05-10T16:15:36;17.73;;;17.07;;
1957;SDS011;979;51.076;13.748;2023-05-10T16:18:04;19.70;;;18.80;;
1957;SDS011;979;51.076;13.748;2023-05-10T16:20:33;17.43;;;16.73;;
1957;SDS011;979;51.076;13.748;2023-05-10T16:23:04;17.93;;;17.23;;
1957;SDS011;979;51.076;13.748;2023-05-10T16:25:33;16.83;;;16.23;;